createdAt,value
2019-04-23T00:04:13.292Z,42.89
2019-04-23T00:09:36.853Z,42.21
2019-04-23T00:11:51.602Z,42.46
2019-04-23T00:14:37.995Z,43.36
2019-04-23T00:17:04.600Z,43.00
2019-04-23T00:19:31.159Z,43.04
2019-04-23T00:22:15.075Z,43.19
2019-04-23T00:25:12.159Z,44.57
2019-04-23T00:27:32.062Z,43.22
2019-04-23T00:32:31.280Z,43.32
2019-04-23T00:35:02.717Z,43.42
2019-04-23T00:37:31.087Z,43.71
2019-04-23T00:40:02.649Z,43.74
2019-04-23T00:42:41.558Z,44.63
2019-04-23T00:45:08.266Z,44.25
2019-04-23T00:47:46.692Z,44.29
2019-04-23T00:50:24.822Z,43.35
2019-04-23T00:52:50.673Z,43.34
2019-04-23T00:55:31.311Z,44.50
2019-04-23T00:58:11.168Z,44.12
2019-04-23T01:00:44.947Z,44.36
2019-04-23T01:05:41.174Z,44.73
2019-04-23T01:08:20.174Z,44.52
2019-04-23T01:11:06.156Z,44.39
2019-04-23T01:13:39.433Z,44.15
2019-04-23T01:16:05.763Z,44.66
2019-04-23T01:21:03.296Z,44.90
2019-04-23T01:23:45.604Z,44.99
2019-04-23T01:26:32.995Z,44.98
2019-04-23T01:29:08.427Z,45.46
2019-04-23T01:31:41.418Z,45.60
2019-04-23T01:34:20.133Z,45.88
2019-04-23T01:36:52.215Z,46.01
2019-04-23T01:39:38.361Z,45.90
2019-04-23T01:42:18.085Z,46.11
2019-04-23T01:44:36.982Z,46.72
2019-04-23T01:47:00.703Z,46.58
2019-04-23T01:49:46.371Z,47.03
2019-04-23T01:52:08.225Z,47.35
2019-04-23T01:54:45.450Z,47.31
2019-04-23T01:57:17.043Z,47.50
2019-04-23T01:59:49.044Z,47.51
2019-04-23T02:02:29.781Z,47.80
2019-04-23T02:05:05.992Z,47.65
2019-04-23T02:07:33.723Z,47.39
2019-04-23T02:10:08.334Z,47.40
2019-04-23T02:12:35.838Z,48.29
2019-04-23T02:15:12.154Z,47.57
2019-04-23T02:17:48.349Z,47.38
2019-04-23T02:20:16.065Z,47.67
2019-04-23T02:23:13.624Z,48.05
2019-04-23T02:28:25.796Z,48.64
2019-04-23T02:31:18.709Z,48.70
2019-04-23T02:33:35.850Z,48.67
2019-04-23T02:36:07.932Z,49.00
2019-04-23T02:38:44.323Z,49.03
2019-04-23T02:43:44.176Z,48.85
2019-04-23T02:46:17.578Z,49.09
2019-04-23T02:51:27.531Z,49.30
2019-04-23T02:54:15.609Z,49.49
2019-04-23T02:56:39.237Z,49.26
2019-04-23T02:59:02.228Z,49.61
2019-04-23T03:04:26.867Z,49.81
2019-04-23T03:06:50.463Z,50.29
2019-04-23T03:09:15.254Z,50.28
2019-04-23T03:11:47.872Z,50.40
2019-04-23T03:14:18.486Z,50.73
2019-04-23T03:16:56.568Z,50.45
2019-04-23T03:22:25.270Z,50.38
2019-04-23T03:24:59.833Z,50.38
2019-04-23T03:30:12.066Z,50.59
2019-04-23T03:32:45.667Z,50.69
2019-04-23T03:42:42.653Z,51.12
2019-04-23T03:47:48.673Z,51.91
2019-04-23T03:50:31.603Z,51.73
2019-04-23T03:52:44.757Z,52.06
2019-04-23T03:58:08.107Z,52.15
2019-04-23T04:00:37.192Z,52.29
2019-04-23T04:05:49.653Z,52.70
2019-04-23T04:08:18.431Z,52.61
2019-04-23T04:11:02.528Z,52.56
2019-04-23T04:16:00.896Z,52.86
2019-04-23T04:21:09.509Z,53.14
2019-04-23T04:26:13.753Z,53.52
2019-04-23T04:31:16.654Z,53.72
2019-04-23T04:38:56.636Z,54.11
2019-04-23T04:44:21.952Z,54.28
2019-04-23T04:46:39.039Z,54.17
2019-04-23T04:49:23.668Z,54.33
2019-04-23T04:51:49.922Z,54.34
2019-04-23T04:56:42.984Z,54.60
2019-04-23T04:59:13.402Z,54.78
2019-04-23T05:02:00.461Z,54.86
2019-04-23T05:04:28.525Z,54.94
2019-04-23T05:09:41.529Z,55.34
2019-04-23T05:14:43.827Z,55.93
2019-04-23T05:20:05.077Z,55.63
2019-04-23T05:22:22.525Z,54.99
2019-04-23T05:24:52.806Z,55.19
2019-04-23T05:27:32.213Z,55.33
2019-04-23T05:30:00.721Z,55.58
2019-04-23T05:32:34.267Z,56.21
2019-04-23T05:35:07.875Z,55.64
2019-04-23T05:37:50.456Z,55.71
2019-04-23T05:40:28.180Z,56.04
2019-04-23T05:42:50.046Z,56.09
2019-04-23T05:45:15.503Z,56.75
2019-04-23T05:48:04.686Z,56.69
2019-04-23T05:50:36.984Z,56.39
2019-04-23T05:52:59.595Z,56.72
2019-04-23T05:55:38.439Z,56.24
2019-04-23T05:58:13.263Z,56.14
2019-04-23T06:00:51.557Z,55.92
2019-04-23T06:03:16.356Z,55.80
2019-04-23T06:08:41.001Z,55.67
2019-04-23T06:11:01.993Z,55.67
2019-04-23T06:13:35.974Z,55.70
2019-04-23T06:16:05.115Z,56.10
2019-04-23T06:18:38.807Z,56.18
2019-04-23T06:21:10.040Z,55.84
2019-04-23T06:23:59.727Z,56.15
2019-04-23T06:26:24.266Z,55.76
2019-04-23T06:28:50.853Z,55.74
2019-04-23T06:31:26.550Z,56.19
2019-04-23T06:33:54.169Z,56.44
2019-04-23T06:41:36.160Z,56.45
2019-04-23T06:46:53.543Z,55.41
2019-04-23T06:49:26.975Z,55.80
2019-04-23T06:52:02.680Z,55.68
2019-04-23T06:54:24.491Z,54.99
2019-04-23T06:57:11.851Z,54.90
2019-04-23T06:59:33.567Z,55.52
2019-04-23T07:02:14.948Z,54.54
2019-04-23T07:04:43.804Z,55.48
2019-04-23T07:07:42.659Z,55.36
2019-04-23T07:10:12.997Z,55.33
2019-04-23T07:12:29.743Z,54.92
2019-04-23T07:15:13.274Z,54.14
2019-04-23T07:17:32.535Z,53.99
2019-04-23T07:20:08.375Z,54.01
2019-04-23T07:22:45.653Z,53.64
2019-04-23T07:25:17.325Z,52.93
2019-04-23T07:27:47.623Z,52.59
2019-04-23T07:30:33.400Z,51.87
2019-04-23T07:32:56.638Z,51.58
2019-04-23T07:35:24.582Z,51.25
2019-04-23T07:38:16.405Z,51.22
2019-04-23T07:41:03.748Z,50.26
2019-04-23T07:43:25.290Z,50.96
2019-04-23T07:46:06.418Z,50.61
2019-04-23T07:48:21.878Z,50.78
2019-04-23T07:50:59.067Z,49.45
2019-04-23T07:53:44.421Z,49.14
2019-04-23T07:56:13.224Z,49.33
2019-04-23T07:58:40.086Z,49.55
2019-04-23T08:01:34.874Z,50.17
2019-04-23T08:03:55.933Z,48.55
2019-04-23T08:06:21.771Z,48.31
2019-04-23T08:09:04.053Z,48.64
2019-04-23T08:11:39.951Z,48.81
2019-04-23T08:14:06.008Z,47.06
2019-04-23T08:16:38.305Z,48.23
2019-04-23T08:19:17.016Z,48.80
2019-04-23T08:21:58.197Z,47.41
2019-04-23T08:24:45.257Z,46.68
2019-04-23T08:27:15.306Z,46.87
2019-04-23T08:29:48.890Z,45.20
2019-04-23T08:35:03.119Z,44.29
2019-04-23T08:37:46.693Z,44.82
2019-04-23T08:40:08.243Z,44.14
2019-04-23T08:42:45.700Z,44.27
2019-04-23T08:48:08.578Z,43.92
2019-04-23T08:50:43.047Z,43.26
2019-04-23T08:53:18.280Z,43.07
2019-04-23T08:55:46.437Z,43.00
2019-04-23T08:58:23.829Z,43.02
2019-04-23T09:00:55.344Z,43.39
2019-04-23T09:03:34.525Z,44.02
2019-04-23T09:06:00.673Z,44.46
2019-04-23T09:08:32.856Z,44.26
2019-04-23T09:16:10.665Z,41.57
2019-04-23T09:19:02.640Z,42.24
2019-04-23T09:21:16.054Z,41.68
2019-04-23T09:23:54.074Z,41.56
2019-04-23T09:26:22.137Z,41.50
2019-04-23T09:29:00.081Z,41.20
2019-04-23T09:32:18.488Z,41.01
2019-04-23T09:34:31.679Z,41.87
2019-04-23T09:42:22.634Z,41.69
2019-04-23T09:47:50.447Z,41.75
2019-04-23T09:50:24.019Z,40.81
2019-04-23T09:53:09.703Z,39.98
2019-04-23T09:55:35.132Z,38.34
2019-04-23T09:59:15.889Z,40.07
2019-04-23T10:11:55.499Z,35.43
2019-04-23T10:17:56.358Z,35.95
2019-04-23T10:20:30.857Z,35.02
2019-04-23T10:23:23.228Z,34.84
2019-04-23T10:32:39.832Z,35.38
2019-04-23T10:39:08.499Z,35.69
2019-04-23T10:50:38.812Z,35.50
2019-04-23T10:58:08.387Z,35.91
2019-04-23T10:58:41.071Z,33.64
2019-04-23T11:52:48.603Z,33.80
2019-04-23T11:55:29.308Z,32.96
2019-04-23T12:00:27.839Z,33.95
2019-04-23T12:08:25.149Z,34.61
2019-04-23T12:10:57.620Z,35.40
2019-04-23T12:13:43.458Z,35.10
2019-04-23T12:16:04.527Z,33.53
2019-04-23T12:18:43.190Z,34.56
2019-04-23T12:21:17.298Z,34.11
2019-04-23T12:26:31.508Z,34.89
2019-04-23T12:31:36.454Z,33.45
2019-04-23T12:36:43.724Z,33.77
2019-04-23T12:39:17.008Z,33.47
2019-04-23T12:41:44.819Z,33.73
2019-04-23T12:44:16.260Z,32.93
2019-04-23T12:46:57.604Z,33.67
2019-04-23T12:49:44.019Z,33.35
2019-04-23T12:52:14.307Z,33.60
2019-04-23T12:55:05.311Z,33.79
2019-04-23T12:57:17.495Z,34.25
2019-04-23T12:59:50.059Z,34.05
2019-04-23T13:02:35.047Z,36.00
2019-04-23T13:05:05.492Z,34.39
2019-04-23T13:10:27.356Z,33.93
2019-04-23T13:15:19.252Z,34.97
2019-04-23T13:17:55.504Z,34.44
2019-04-23T13:20:23.518Z,34.83
2019-04-23T13:23:01.481Z,34.07
2019-04-23T13:25:39.859Z,34.19
2019-04-23T13:36:01.156Z,34.80
2019-04-23T13:38:38.425Z,36.42
2019-04-23T13:48:40.094Z,34.73
2019-04-23T13:52:15.973Z,35.28
2019-04-23T13:56:32.089Z,35.86
2019-04-23T14:04:18.090Z,36.07
2019-04-23T14:09:24.166Z,35.12
2019-04-23T14:11:38.606Z,34.79
2019-04-23T14:14:43.721Z,35.30
2019-04-23T14:17:16.682Z,36.97
2019-04-23T14:19:43.409Z,35.30
2019-04-23T14:25:02.156Z,35.56
2019-04-23T14:30:05.284Z,35.55
2019-04-23T14:32:29.328Z,36.46
2019-04-23T14:35:18.308Z,36.59
2019-04-23T14:37:52.177Z,35.24
2019-04-23T14:40:23.935Z,34.66
2019-04-23T14:43:14.518Z,34.88
2019-04-23T14:51:07.003Z,36.31
2019-04-23T14:53:24.705Z,36.22
2019-04-23T14:56:09.732Z,34.87
2019-04-23T14:58:50.625Z,35.94
2019-04-23T15:03:50.086Z,36.76
2019-04-23T15:06:35.817Z,35.80
2019-04-23T15:09:16.702Z,36.41
2019-04-23T15:11:35.483Z,36.68
2019-04-23T15:14:28.702Z,35.30
2019-04-23T15:16:46.665Z,36.76
2019-04-23T15:22:05.191Z,38.10
2019-04-23T15:29:12.878Z,36.47
2019-04-23T15:32:03.159Z,35.03
2019-04-23T15:34:30.638Z,35.54
2019-04-23T15:39:46.525Z,36.35
2019-04-23T15:42:29.483Z,37.14
2019-04-23T15:44:55.703Z,38.17
2019-04-23T15:47:28.509Z,38.08
2019-04-23T15:50:10.284Z,37.90
2019-04-23T15:52:41.335Z,37.44
2019-04-23T15:55:01.261Z,37.55
2019-04-23T15:58:01.048Z,37.44
2019-04-23T16:00:25.787Z,36.72
2019-04-23T16:02:17.899Z,36.12
2019-04-23T16:04:49.345Z,36.63
2019-04-23T16:07:35.165Z,36.57
2019-04-23T16:10:25.158Z,35.80
2019-04-23T16:13:02.916Z,36.81
2019-04-23T16:15:25.586Z,36.66
2019-04-23T16:18:33.423Z,36.67
2019-04-23T16:21:03.749Z,36.73
2019-04-23T16:23:28.085Z,35.80
2019-04-23T16:25:58.344Z,35.37
2019-04-23T16:28:52.139Z,36.06
2019-04-23T16:31:18.213Z,37.27
2019-04-23T16:33:48.864Z,35.25
2019-04-23T16:36:25.297Z,37.38
2019-04-23T16:41:34.919Z,36.60
2019-04-23T16:44:03.522Z,35.29
2019-04-23T16:46:33.393Z,35.62
2019-04-23T16:51:39.022Z,36.85
2019-04-23T16:54:26.741Z,36.44
2019-04-23T16:57:15.237Z,36.46
2019-04-23T16:59:24.630Z,36.82
2019-04-23T17:04:34.986Z,40.81
2019-04-23T17:07:05.292Z,42.13
2019-04-23T17:09:42.581Z,40.87
2019-04-23T17:12:10.490Z,41.29
2019-04-23T17:15:02.097Z,40.99
2019-04-23T17:17:14.925Z,40.90
2019-04-23T17:19:50.540Z,39.50
2019-04-23T17:22:38.464Z,39.19
2019-04-23T17:25:09.128Z,39.49
2019-04-23T17:27:33.560Z,41.79
2019-04-23T17:30:09.586Z,42.02
2019-04-23T17:33:02.988Z,40.85
2019-04-23T17:35:29.810Z,40.28
2019-04-23T17:38:21.018Z,40.96
2019-04-23T17:41:10.151Z,41.68
2019-04-23T17:43:54.422Z,40.61
2019-04-23T17:46:21.843Z,40.51
2019-04-23T17:49:04.317Z,40.99
2019-04-23T17:51:35.933Z,41.28
2019-04-23T17:54:18.765Z,42.72
2019-04-23T17:56:55.977Z,43.00
2019-04-23T17:59:22.883Z,42.74
2019-04-23T18:02:22.717Z,43.02
2019-04-23T18:04:29.392Z,43.05
2019-04-23T18:07:23.259Z,43.49
2019-04-23T18:09:36.758Z,44.22
2019-04-23T18:12:23.838Z,44.30
2019-04-23T18:14:39.719Z,44.66
2019-04-23T18:17:24.215Z,45.51
2019-04-23T18:19:58.260Z,45.89
2019-04-23T18:22:31.079Z,45.97
2019-04-23T18:25:11.188Z,46.59
2019-04-23T18:27:48.279Z,46.74
2019-04-23T18:30:23.169Z,47.08
2019-04-23T18:35:33.009Z,47.67
2019-04-23T18:38:09.748Z,47.91
2019-04-23T18:40:55.134Z,48.35
2019-04-23T18:43:20.191Z,48.39
2019-04-23T18:45:59.437Z,48.53
2019-04-23T18:53:54.587Z,49.19
2019-04-23T18:56:11.320Z,49.67
2019-04-23T18:58:55.366Z,50.01
2019-04-23T19:04:45.574Z,50.49
2019-04-23T19:06:47.391Z,50.55
2019-04-23T19:10:12.298Z,50.93
2019-04-23T19:12:31.062Z,51.49
2019-04-23T19:15:09.455Z,51.72
2019-04-23T19:20:14.458Z,52.02
2019-04-23T19:22:51.801Z,52.07
2019-04-23T19:25:20.824Z,51.33
2019-04-23T19:27:45.717Z,51.18
2019-04-23T19:30:38.872Z,52.17
2019-04-23T19:33:13.860Z,52.58
2019-04-23T19:38:21.497Z,52.69
2019-04-23T19:40:56.694Z,52.61
2019-04-23T19:43:31.339Z,52.49
2019-04-23T19:46:03.958Z,52.37
2019-04-23T19:48:42.163Z,52.35
2019-04-23T19:51:03.160Z,52.71
2019-04-23T19:53:57.685Z,53.01
2019-04-23T19:56:16.895Z,52.69
2019-04-23T19:58:49.975Z,52.81
2019-04-23T20:03:54.214Z,52.85
2019-04-23T20:06:32.850Z,53.00
2019-04-23T20:11:34.921Z,52.79
2019-04-23T20:14:02.450Z,53.56
2019-04-23T20:16:40.132Z,53.27
2019-04-23T20:19:10.002Z,52.76
2019-04-23T20:21:44.520Z,52.72
2019-04-23T20:26:51.565Z,52.74
2019-04-23T20:29:46.512Z,52.73
2019-04-23T20:34:49.674Z,52.78
2019-04-23T20:37:03.309Z,52.32
2019-04-23T20:49:51.825Z,51.89
2019-04-23T20:52:35.443Z,52.13
2019-04-23T20:57:45.304Z,52.01
2019-04-23T21:00:32.539Z,52.14
2019-04-23T21:03:16.895Z,52.26
2019-04-23T21:08:06.681Z,53.22
2019-04-23T21:13:29.442Z,53.83
2019-04-23T21:18:22.066Z,52.70
2019-04-23T21:20:52.692Z,52.40
2019-04-23T21:23:21.650Z,52.59
2019-04-23T21:25:52.596Z,52.72
2019-04-23T21:28:47.491Z,52.75
2019-04-23T21:31:27.474Z,52.83
2019-04-23T21:34:05.868Z,53.18
2019-04-23T21:36:25.345Z,53.16
2019-04-23T21:39:06.182Z,53.25
2019-04-23T21:46:51.364Z,53.29
2019-04-23T21:52:02.236Z,53.64
2019-04-23T21:54:21.614Z,53.45
2019-04-23T21:56:55.328Z,53.93
2019-04-23T21:59:28.606Z,53.92
2019-04-23T22:02:04.003Z,54.13
2019-04-23T22:07:07.282Z,54.69
2019-04-23T22:12:15.070Z,54.99
2019-04-23T22:17:25.002Z,54.65
2019-04-23T22:22:41.924Z,54.15
2019-04-23T22:25:13.445Z,53.81
2019-04-23T22:27:44.098Z,53.52
2019-04-23T22:30:11.270Z,53.63
2019-04-23T22:33:03.346Z,53.78
2019-04-23T22:35:12.207Z,53.83
2019-04-23T22:37:58.280Z,53.60
2019-04-23T22:40:14.857Z,53.64
2019-04-23T22:45:43.190Z,54.23
2019-04-23T22:48:16.086Z,54.43
2019-04-23T22:50:47.307Z,54.77
2019-04-23T22:55:49.385Z,54.31
2019-04-23T22:58:16.319Z,54.09
2019-04-23T23:01:02.571Z,54.33
2019-04-23T23:03:33.360Z,54.40
2019-04-23T23:06:11.032Z,55.10
2019-04-23T23:08:44.009Z,54.70
2019-04-23T23:13:52.242Z,54.81
2019-04-23T23:16:16.374Z,55.25
2019-04-23T23:18:52.461Z,55.49
2019-04-23T23:21:22.668Z,55.21
2019-04-23T23:23:56.458Z,55.88
2019-04-23T23:26:34.321Z,56.49
2019-04-23T23:29:12.327Z,56.16
2019-04-23T23:31:39.852Z,55.97
2019-04-23T23:34:06.866Z,56.56
2019-04-23T23:36:49.516Z,56.98
2019-04-23T23:42:04.103Z,56.99
2019-04-23T23:49:24.391Z,58.04
2019-04-23T23:51:58.303Z,57.35
2019-04-23T23:54:30.697Z,58.60
2019-04-23T23:57:13.890Z,58.05
